createdAt,value
2023-02-18T00:02:33.812Z,12.30
2023-02-18T00:05:20.915Z,12.30
2023-02-18T00:08:07.671Z,12.30
2023-02-18T00:10:55.325Z,12.30
2023-02-18T00:13:41.724Z,12.30
2023-02-18T00:16:29.009Z,12.30
2023-02-18T00:19:17.413Z,12.40
2023-02-18T00:22:03.753Z,12.40
2023-02-18T00:24:50.316Z,12.40
2023-02-18T00:27:38.340Z,12.40
2023-02-18T00:30:24.808Z,12.40
2023-02-18T00:33:11.611Z,12.40
2023-02-18T00:36:03.571Z,12.40
2023-02-18T00:38:52.502Z,12.40
2023-02-18T00:41:39.385Z,12.40
2023-02-18T00:44:27.681Z,12.50
2023-02-18T00:47:14.166Z,12.40
2023-02-18T00:50:01.085Z,12.40
2023-02-18T00:52:47.921Z,12.40
2023-02-18T00:55:40.231Z,12.40
2023-02-18T00:58:27.512Z,12.40
2023-02-18T01:01:15.306Z,12.30
2023-02-18T01:04:02.065Z,12.30
2023-02-18T01:06:48.650Z,12.30
2023-02-18T01:09:34.996Z,12.30
2023-02-18T01:12:21.287Z,12.30
2023-02-18T01:15:09.112Z,12.20
2023-02-18T01:17:57.077Z,12.20
2023-02-18T01:20:45.617Z,12.20
2023-02-18T01:23:32.192Z,12.30
2023-02-18T01:26:18.698Z,12.20
2023-02-18T01:29:05.359Z,12.20
2023-02-18T01:31:52.579Z,12.30
2023-02-18T01:34:41.306Z,12.30
2023-02-18T01:37:28.133Z,12.30
2023-02-18T01:40:18.220Z,12.30
2023-02-18T01:43:05.417Z,12.30
2023-02-18T01:45:58.794Z,12.30
2023-02-18T01:48:49.822Z,12.30
2023-02-18T01:51:41.304Z,12.30
2023-02-18T01:54:32.716Z,12.20
2023-02-18T01:57:23.954Z,12.20
2023-02-18T02:00:14.648Z,12.20
2023-02-18T02:03:06.351Z,12.20
2023-02-18T02:05:52.588Z,12.20
2023-02-18T02:08:40.433Z,12.10
2023-02-18T02:11:56.356Z,12.20
2023-02-18T02:15:14.173Z,12.20
2023-02-18T02:18:19.103Z,12.20
2023-02-18T02:21:43.038Z,12.20
2023-02-18T02:25:07.164Z,12.20
2023-02-18T02:28:24.083Z,12.20
2023-02-18T02:31:36.191Z,12.20
2023-02-18T02:34:44.777Z,12.20
2023-02-18T02:37:40.996Z,12.20
2023-02-18T02:40:35.233Z,12.20
2023-02-18T02:43:31.060Z,12.10
2023-02-18T02:46:22.715Z,12.20
2023-02-18T02:49:19.702Z,12.00
2023-02-18T02:52:14.124Z,12.00
2023-02-18T02:55:01.251Z,11.90
2023-02-18T02:57:51.079Z,11.80
2023-02-18T03:00:58.255Z,11.80
2023-02-18T03:04:05.568Z,11.70
2023-02-18T03:07:20.659Z,11.70
2023-02-18T03:10:18.195Z,11.60
2023-02-18T03:13:12.566Z,11.60
2023-02-18T03:16:11.145Z,11.60
2023-02-18T03:19:03.428Z,11.60
2023-02-18T03:21:54.483Z,11.70
2023-02-18T03:24:45.096Z,11.60
2023-02-18T03:27:38.929Z,11.60
2023-02-18T03:30:29.868Z,11.60
2023-02-18T03:33:21.322Z,11.60
2023-02-18T03:36:10.246Z,11.70
2023-02-18T03:39:00.862Z,11.70
2023-02-18T03:41:49.653Z,11.80
2023-02-18T03:44:36.617Z,11.80
2023-02-18T03:47:24.328Z,11.80
2023-02-18T03:50:11.611Z,11.80
2023-02-18T03:52:58.188Z,11.90
2023-02-18T03:55:44.760Z,11.90
2023-02-18T03:58:32.440Z,11.90
2023-02-18T04:01:18.906Z,11.90
2023-02-18T04:04:06.170Z,11.90
2023-02-18T04:06:53.015Z,12.00
2023-02-18T04:09:39.764Z,12.00
2023-02-18T04:12:26.219Z,12.00
2023-02-18T04:15:13.985Z,12.00
2023-02-18T04:18:00.285Z,12.00
2023-02-18T04:20:47.460Z,12.00
2023-02-18T04:23:34.199Z,12.00
2023-02-18T04:26:21.087Z,12.00
2023-02-18T04:29:07.578Z,12.00
2023-02-18T04:31:55.468Z,12.00
2023-02-18T04:34:42.055Z,12.00
2023-02-18T04:37:28.835Z,12.00
2023-02-18T04:40:15.490Z,12.00
2023-02-18T04:43:02.095Z,12.00
2023-02-18T04:45:48.839Z,12.00
2023-02-18T04:48:37.025Z,12.00
2023-02-18T04:51:23.462Z,12.00
2023-02-18T04:54:10.226Z,12.00
2023-02-18T04:56:56.747Z,12.00
2023-02-18T04:59:44.363Z,12.00
2023-02-18T05:02:31.008Z,12.00
2023-02-18T05:05:18.930Z,11.90
2023-02-18T05:08:05.519Z,11.90
2023-02-18T05:10:51.893Z,11.90
2023-02-18T05:13:38.873Z,11.90
2023-02-18T05:16:25.263Z,11.90
2023-02-18T05:19:14.350Z,11.90
2023-02-18T05:22:02.052Z,11.90
2023-02-18T05:24:48.505Z,11.80
2023-02-18T05:27:35.107Z,11.90
2023-02-18T05:30:21.971Z,11.90
2023-02-18T05:33:08.755Z,11.90
2023-02-18T05:35:55.648Z,11.90
2023-02-18T05:38:43.615Z,11.90
2023-02-18T05:41:30.119Z,11.90
2023-02-18T05:44:31.969Z,11.80
2023-02-18T05:47:18.641Z,11.90
2023-02-18T05:50:06.600Z,11.90
2023-02-18T05:52:53.645Z,11.90
2023-02-18T05:55:41.862Z,11.90
2023-02-18T05:58:28.478Z,11.90
2023-02-18T06:01:14.995Z,11.90
2023-02-18T06:04:01.374Z,11.90
2023-02-18T06:06:48.299Z,11.90
2023-02-18T06:09:34.929Z,11.90
2023-02-18T06:12:22.793Z,11.90
2023-02-18T06:15:09.769Z,11.90
2023-02-18T06:17:56.216Z,12.00
2023-02-18T06:20:42.567Z,12.00
2023-02-18T06:23:29.558Z,12.00
2023-02-18T06:26:16.506Z,12.00
2023-02-18T06:29:04.428Z,12.00
2023-02-18T06:31:51.245Z,12.00
2023-02-18T06:34:37.954Z,12.00
2023-02-18T06:37:24.834Z,12.00
2023-02-18T06:40:11.634Z,12.00
2023-02-18T06:42:58.149Z,12.00
2023-02-18T06:45:45.962Z,12.00
2023-02-18T06:48:33.191Z,12.00
2023-02-18T06:51:19.570Z,12.00
2023-02-18T06:54:06.725Z,12.00
2023-02-18T06:56:53.700Z,12.00
2023-02-18T06:59:40.373Z,12.00
2023-02-18T07:02:28.017Z,12.00
2023-02-18T07:05:14.549Z,12.10
2023-02-18T07:08:01.056Z,12.10
2023-02-18T07:10:48.154Z,12.10
2023-02-18T07:13:34.700Z,12.20
2023-02-18T07:16:21.428Z,12.20
2023-02-18T07:19:09.170Z,12.20
2023-02-18T07:21:57.793Z,12.20
2023-02-18T07:24:44.875Z,12.30
2023-02-18T07:27:31.523Z,12.30
2023-02-18T07:30:18.076Z,12.40
2023-02-18T07:33:05.016Z,12.40
2023-02-18T07:35:59.357Z,12.50
2023-02-18T07:38:46.245Z,12.50
2023-02-18T07:41:33.115Z,12.50
2023-02-18T07:44:19.812Z,12.60
2023-02-18T07:47:06.853Z,12.60
2023-02-18T07:49:53.314Z,12.70
2023-02-18T07:52:41.388Z,12.70
2023-02-18T07:55:48.607Z,12.70
2023-02-18T07:58:38.048Z,12.70
2023-02-18T08:01:24.740Z,12.80
2023-02-18T08:04:11.392Z,12.70
2023-02-18T08:06:58.250Z,12.80
2023-02-18T08:09:46.381Z,12.80
2023-02-18T08:12:33.228Z,12.80
2023-02-18T08:15:19.685Z,12.80
2023-02-18T08:18:07.087Z,12.90
2023-02-18T08:20:54.404Z,12.90
2023-02-18T08:23:41.706Z,12.90
2023-02-18T08:26:30.221Z,12.90
2023-02-18T08:29:16.625Z,12.90
2023-02-18T08:32:03.098Z,13.00
2023-02-18T08:34:49.938Z,13.00
2023-02-18T08:37:53.859Z,13.10
2023-02-18T08:40:42.554Z,13.10
2023-02-18T08:43:30.315Z,13.20
2023-02-18T08:46:27.175Z,13.20
2023-02-18T08:49:24.108Z,13.20
2023-02-18T08:52:10.711Z,13.20
2023-02-18T08:54:57.326Z,13.20
2023-02-18T08:57:44.003Z,13.30
2023-02-18T09:00:31.687Z,13.40
2023-02-18T09:03:18.608Z,13.40
2023-02-18T09:06:05.996Z,13.50
2023-02-18T09:08:52.641Z,13.50
2023-02-18T09:11:38.950Z,13.40
2023-02-18T09:14:25.708Z,13.40
2023-02-18T09:17:13.659Z,13.40
2023-02-18T09:20:00.269Z,13.30
2023-02-18T09:22:46.715Z,13.20
2023-02-18T09:25:33.060Z,13.10
2023-02-18T09:28:19.441Z,13.10
2023-02-18T09:31:08.094Z,13.20
2023-02-18T09:33:58.638Z,13.20
2023-02-18T09:36:45.142Z,13.20
2023-02-18T09:39:31.702Z,13.30
2023-02-18T09:42:22.003Z,13.30
2023-02-18T09:45:11.831Z,13.30
2023-02-18T09:47:59.555Z,13.30
2023-02-18T09:50:52.418Z,13.30
2023-02-18T09:53:39.029Z,13.30
2023-02-18T09:56:30.035Z,13.30
2023-02-18T09:59:19.770Z,13.30
2023-02-18T10:02:16.978Z,13.30
2023-02-18T10:05:04.208Z,13.30
2023-02-18T10:07:56.406Z,13.30
2023-02-18T10:10:44.944Z,13.20
2023-02-18T10:13:35.630Z,13.20
2023-02-18T10:16:24.815Z,13.20
2023-02-18T10:19:22.182Z,13.20
2023-02-18T10:22:13.425Z,13.20
2023-02-18T10:25:07.372Z,13.20
2023-02-18T10:27:55.299Z,13.10
2023-02-18T10:30:43.915Z,13.10
2023-02-18T10:33:36.184Z,13.10
2023-02-18T10:36:28.133Z,13.10
2023-02-18T10:39:32.951Z,13.10
2023-02-18T10:42:31.866Z,13.10
2023-02-18T10:45:27.883Z,13.10
2023-02-18T10:48:34.380Z,13.10
2023-02-18T10:51:23.982Z,13.20
2023-02-18T10:54:10.790Z,13.10
2023-02-18T10:57:01.197Z,13.10
2023-02-18T10:59:59.254Z,13.10
2023-02-18T11:02:46.960Z,13.10
2023-02-18T11:05:37.302Z,13.10
2023-02-18T11:08:26.934Z,13.10
2023-02-18T11:11:18.798Z,13.10
2023-02-18T11:14:07.629Z,13.10
2023-02-18T11:16:59.781Z,13.20
2023-02-18T11:19:54.110Z,13.30
2023-02-18T11:22:41.492Z,13.30
2023-02-18T11:25:33.466Z,13.40
2023-02-18T11:28:30.800Z,13.30
2023-02-18T11:31:22.937Z,13.40
2023-02-18T11:34:17.614Z,13.40
2023-02-18T11:37:11.231Z,13.40
2023-02-18T11:39:57.817Z,13.40
2023-02-18T11:42:44.416Z,13.40
2023-02-18T11:45:33.914Z,13.40
2023-02-18T11:48:24.782Z,13.40
2023-02-18T11:51:18.740Z,13.50
2023-02-18T11:54:06.955Z,13.50
2023-02-18T11:56:58.076Z,13.50
2023-02-18T11:59:45.500Z,13.60
2023-02-18T12:02:35.706Z,13.50
2023-02-18T12:05:25.071Z,13.40
2023-02-18T12:08:18.899Z,13.30
2023-02-18T12:11:11.475Z,13.30
2023-02-18T12:13:59.508Z,13.30
2023-02-18T12:17:02.913Z,13.30
2023-02-18T12:20:03.942Z,13.30
2023-02-18T12:23:02.830Z,13.30
2023-02-18T12:26:01.336Z,13.30
2023-02-18T12:29:06.103Z,13.30
2023-02-18T12:32:20.628Z,13.30
2023-02-18T12:35:27.960Z,13.30
2023-02-18T12:38:35.795Z,13.30
2023-02-18T12:41:39.404Z,13.30
2023-02-18T12:44:37.876Z,13.30
2023-02-18T12:47:37.661Z,13.30
2023-02-18T12:50:57.881Z,13.30
2023-02-18T12:54:06.851Z,13.30
2023-02-18T12:57:10.590Z,13.40
2023-02-18T13:00:38.357Z,13.40
2023-02-18T13:04:00.792Z,13.50
2023-02-18T13:07:02.022Z,13.50
2023-02-18T13:10:11.977Z,13.60
2023-02-18T13:13:05.053Z,13.60
2023-02-18T13:15:56.250Z,13.60
2023-02-18T13:18:46.414Z,13.60
2023-02-18T13:21:33.515Z,13.60
2023-02-18T13:24:27.820Z,13.60
2023-02-18T13:27:21.767Z,13.50
2023-02-18T13:30:22.633Z,13.50
2023-02-18T13:33:17.169Z,13.50
2023-02-18T13:36:09.249Z,13.50
2023-02-18T13:39:02.179Z,13.70
2023-02-18T13:41:50.563Z,13.80
2023-02-18T13:45:29.180Z,13.80
2023-02-18T13:48:28.454Z,13.80
2023-02-18T13:51:17.313Z,13.80
2023-02-18T13:54:20.300Z,13.80
2023-02-18T13:57:14.407Z,13.90
2023-02-18T14:00:03.177Z,14.00
2023-02-18T14:02:59.614Z,14.00
2023-02-18T14:05:47.618Z,14.00
2023-02-18T14:08:35.909Z,14.20
2023-02-18T14:11:40.754Z,14.30
2023-02-18T14:14:39.725Z,14.30
2023-02-18T14:17:44.392Z,14.10
2023-02-18T14:20:46.747Z,14.00
2023-02-18T14:24:00.026Z,14.10
2023-02-18T14:26:50.772Z,14.10
2023-02-18T14:29:37.512Z,14.10
2023-02-18T14:32:24.136Z,14.10
2023-02-18T14:35:28.012Z,14.10
2023-02-18T14:38:31.534Z,14.00
2023-02-18T14:41:42.535Z,13.90
2023-02-18T14:44:50.420Z,14.00
2023-02-18T14:47:50.662Z,14.00
2023-02-18T14:50:39.288Z,14.00
2023-02-18T14:53:27.578Z,13.90
2023-02-18T14:56:19.522Z,13.90
2023-02-18T14:59:08.347Z,13.80
2023-02-18T15:01:56.718Z,13.80
2023-02-18T15:04:52.358Z,13.80
2023-02-18T15:07:39.320Z,13.70
2023-02-18T15:10:36.942Z,13.80
2023-02-18T15:13:28.439Z,13.80
2023-02-18T15:16:20.993Z,13.70
2023-02-18T15:19:14.046Z,13.60
2023-02-18T15:22:00.317Z,13.60
2023-02-18T15:24:47.194Z,13.60
2023-02-18T15:27:37.743Z,13.70
2023-02-18T15:30:29.152Z,13.60
2023-02-18T15:33:19.834Z,13.70
2023-02-18T15:36:12.274Z,13.70
2023-02-18T15:38:59.088Z,13.70
2023-02-18T15:41:46.246Z,13.60
2023-02-18T15:44:36.076Z,13.60
2023-02-18T15:47:23.898Z,13.50
2023-02-18T15:50:20.855Z,13.40
2023-02-18T15:53:09.819Z,13.30
2023-02-18T15:55:56.561Z,13.20
2023-02-18T15:58:43.550Z,13.20
2023-02-18T16:01:31.221Z,13.30
2023-02-18T16:04:17.577Z,13.20
2023-02-18T16:07:20.441Z,13.10
2023-02-18T16:10:18.935Z,13.10
2023-02-18T16:13:06.579Z,13.10
2023-02-18T16:15:54.399Z,13.10
2023-02-18T16:18:42.525Z,13.00
2023-02-18T16:21:34.404Z,12.90
2023-02-18T16:24:28.509Z,12.90
2023-02-18T16:27:17.930Z,12.80
2023-02-18T16:30:15.081Z,12.80
2023-02-18T16:33:02.272Z,12.80
2023-02-18T16:35:50.880Z,12.80
2023-02-18T16:38:37.837Z,12.70
2023-02-18T16:41:26.195Z,12.60
2023-02-18T16:44:15.012Z,12.60
2023-02-18T16:47:01.874Z,12.60
2023-02-18T16:49:51.053Z,12.60
2023-02-18T16:52:37.527Z,12.60
2023-02-18T16:55:25.678Z,12.50
2023-02-18T16:58:13.566Z,12.50
2023-02-18T17:01:00.363Z,12.50
2023-02-18T17:03:48.841Z,12.40
2023-02-18T17:06:35.849Z,12.40
2023-02-18T17:09:26.861Z,12.40
2023-02-18T17:12:13.970Z,12.40
2023-02-18T17:15:01.737Z,12.40
2023-02-18T17:17:48.483Z,12.30
2023-02-18T17:20:34.826Z,12.30
2023-02-18T17:23:23.875Z,12.20
2023-02-18T17:26:20.285Z,12.10
2023-02-18T17:29:06.711Z,12.10
2023-02-18T17:31:57.576Z,12.10
2023-02-18T17:34:44.479Z,12.00
2023-02-18T17:37:30.862Z,12.10
2023-02-18T17:40:18.527Z,12.00
2023-02-18T17:43:04.956Z,12.00
2023-02-18T17:45:53.448Z,12.00
2023-02-18T17:48:41.583Z,11.90
2023-02-18T17:51:30.226Z,11.90
2023-02-18T17:54:18.882Z,11.80
2023-02-18T17:57:05.736Z,11.80
2023-02-18T17:59:52.034Z,11.80
2023-02-18T18:02:38.436Z,11.80
2023-02-18T18:05:28.228Z,11.80
2023-02-18T18:08:14.815Z,11.70
2023-02-18T18:11:02.408Z,11.70
2023-02-18T18:13:48.844Z,11.70
2023-02-18T18:16:35.327Z,11.70
2023-02-18T18:19:22.144Z,11.60
2023-02-18T18:22:10.202Z,11.70
2023-02-18T18:24:56.739Z,11.70
2023-02-18T18:27:43.163Z,11.70
2023-02-18T18:30:32.830Z,11.70
2023-02-18T18:33:23.043Z,11.70
2023-02-18T18:36:10.150Z,11.70
2023-02-18T18:38:57.948Z,11.60
2023-02-18T18:41:44.300Z,11.60
2023-02-18T18:44:30.826Z,11.60
2023-02-18T18:47:17.574Z,11.60
2023-02-18T18:50:03.954Z,11.50
2023-02-18T18:52:52.523Z,11.60
2023-02-18T18:55:40.699Z,11.50
2023-02-18T18:58:27.657Z,11.50
2023-02-18T19:01:17.119Z,11.50
2023-02-18T19:04:04.127Z,11.40
2023-02-18T19:06:50.915Z,11.50
2023-02-18T19:09:37.737Z,11.40
2023-02-18T19:12:25.649Z,11.40
2023-02-18T19:15:15.016Z,11.40
2023-02-18T19:18:02.017Z,11.40
2023-02-18T19:20:49.478Z,11.40
2023-02-18T19:23:36.394Z,11.40
2023-02-18T19:26:23.229Z,11.30
2023-02-18T19:29:11.313Z,11.30
2023-02-18T19:31:58.211Z,11.30
2023-02-18T19:34:44.899Z,11.30
2023-02-18T19:37:35.153Z,11.30
2023-02-18T19:40:23.353Z,11.30
2023-02-18T19:43:10.833Z,11.20
2023-02-18T19:45:58.826Z,11.20
2023-02-18T19:48:49.264Z,11.10
2023-02-18T19:51:36.087Z,11.10
2023-02-18T19:54:22.456Z,11.10
2023-02-18T19:57:08.797Z,11.00
2023-02-18T19:59:55.208Z,11.00
2023-02-18T20:02:44.148Z,11.00
2023-02-18T20:05:30.840Z,11.00
2023-02-18T20:08:17.200Z,10.90
2023-02-18T20:11:03.670Z,10.90
2023-02-18T20:13:50.437Z,10.90
2023-02-18T20:16:37.148Z,10.90
2023-02-18T20:19:25.266Z,10.80
2023-02-18T20:22:12.093Z,10.80
2023-02-18T20:24:58.635Z,10.80
2023-02-18T20:27:59.888Z,10.90
2023-02-18T20:30:47.631Z,10.90
2023-02-18T20:33:34.108Z,10.80
2023-02-18T20:36:22.623Z,10.80
2023-02-18T20:39:16.162Z,10.70
2023-02-18T20:42:15.415Z,10.70
2023-02-18T20:45:03.218Z,10.70
2023-02-18T20:47:49.438Z,10.70
2023-02-18T20:50:36.154Z,10.60
2023-02-18T20:53:24.725Z,10.60
2023-02-18T20:56:11.850Z,10.60
2023-02-18T20:58:58.246Z,10.60
2023-02-18T21:01:45.934Z,10.60
2023-02-18T21:04:32.616Z,10.60
2023-02-18T21:07:19.460Z,10.60
2023-02-18T21:10:07.736Z,10.60
2023-02-18T21:12:54.674Z,10.50
2023-02-18T21:15:40.910Z,10.60
2023-02-18T21:18:27.290Z,10.60
2023-02-18T21:21:15.885Z,10.50
2023-02-18T21:24:02.481Z,10.50
2023-02-18T21:26:50.462Z,10.50
2023-02-18T21:29:37.114Z,10.50
2023-02-18T21:32:23.820Z,10.40
2023-02-18T21:35:10.562Z,10.40
2023-02-18T21:37:57.139Z,10.30
2023-02-18T21:40:44.442Z,10.30
2023-02-18T21:43:32.399Z,10.30
2023-02-18T21:46:21.811Z,10.30
2023-02-18T21:49:10.164Z,10.20
2023-02-18T21:52:01.840Z,10.30
2023-02-18T21:54:48.913Z,10.30
2023-02-18T21:57:35.796Z,10.20
2023-02-18T22:00:23.828Z,10.20
2023-02-18T22:03:10.535Z,10.20
2023-02-18T22:05:57.258Z,10.20
2023-02-18T22:08:43.671Z,10.10
2023-02-18T22:11:30.151Z,10.10
2023-02-18T22:14:16.975Z,10.10
2023-02-18T22:17:05.167Z,10.10
2023-02-18T22:19:51.806Z,10.10
2023-02-18T22:22:38.156Z,10.10
2023-02-18T22:25:24.586Z,10.10
2023-02-18T22:28:11.056Z,10.10
2023-02-18T22:30:57.372Z,10.10
2023-02-18T22:33:45.191Z,10.10
2023-02-18T22:36:31.916Z,10.10
2023-02-18T22:39:18.467Z,10.10
2023-02-18T22:42:05.039Z,10.20
2023-02-18T22:44:51.562Z,10.20
2023-02-18T22:47:37.863Z,10.20
2023-02-18T22:50:25.616Z,10.20
2023-02-18T22:53:11.966Z,10.20
2023-02-18T22:56:00.929Z,10.20
2023-02-18T22:58:50.110Z,10.10
2023-02-18T23:01:39.925Z,10.10
2023-02-18T23:04:26.732Z,10.20
2023-02-18T23:07:14.639Z,10.20
2023-02-18T23:10:01.539Z,10.20
2023-02-18T23:12:48.205Z,10.10
2023-02-18T23:15:34.677Z,10.10
2023-02-18T23:18:21.428Z,10.10
2023-02-18T23:21:21.293Z,10.10
2023-02-18T23:24:09.392Z,10.00
2023-02-18T23:26:55.748Z,10.10
2023-02-18T23:29:42.502Z,10.00
2023-02-18T23:32:30.645Z,10.00
2023-02-18T23:35:17.328Z,10.00
2023-02-18T23:38:04.165Z,10.00
2023-02-18T23:40:52.120Z,10.00
2023-02-18T23:43:38.536Z,10.00
2023-02-18T23:46:27.113Z,9.90
2023-02-18T23:49:16.037Z,9.90
2023-02-18T23:52:02.775Z,10.00
2023-02-18T23:54:49.105Z,10.00
2023-02-18T23:57:37.190Z,10.00
